Terminal Aerodrome Forecast
Issued by NWS

Home | Current Version | Previous Version | Text Only | Print | Product List | Glossary On
Versions: 1 2 3 4 5 6 7 8 9 10 11 12 13 14 15 16 17 18 19 20 21 22 23 24 25 26 27 28 29 30 31 32
000
FTUS46 KPQR 261120
TAFONP
TAF
KONP 261120Z 2612/2712 15012KT P6SM -RA BKN035 OVC050
     FM261500 17013G20KT 6SM -RA BR BKN025 OVC040
     FM261900 18015G25KT 5SM -RA BR BKN008 BKN015 OVC025
     FM262200 21010KT 6SM -SHRA BR SCT008 BKN015 BKN040
     FM270100 21008KT P6SM -SHRA SCT015 BKN040=

USA.gov is the U.S. government's official web portal to all federal, state and local government web resources and services.